Time;durP1;ratioP1;P1;durP2;ratioP2;P2;SDS_P1;SDS_P2;PMS_P1;PMS_P2;Temp;Humidity;BMP_temperature;BMP_pressure;BME280_temperature;BME280_humidity;BME280_pressure;Samples;Min_cycle;Max_cycle;Signal;HPM_P1;HPM_P2
2022/11/08 00:02:31;;;;;;;18.43;12.20;;;;;;;3.67;100.00;96370.53;5033218;28;21050;-77
2022/11/08 00:04:57;;;;;;;16.30;13.13;;;;;;;3.64;100.00;96373.72;5022480;28;20443;-77
2022/11/08 00:15:40;;;;;;;13.77;11.00;;;;;;;3.64;100.00;96318.03;5040435;28;20487;-77
2022/11/08 00:18:07;;;;;;;15.90;11.30;;;;;;;3.92;100.00;96361.59;5022578;28;20473;-78
2022/11/08 00:20:33;;;;;;;17.17;12.00;;;;;;;3.49;100.00;96347.75;5017350;28;20460;-78
2022/11/08 00:23:00;;;;;;;24.87;12.93;;;;;;;3.53;100.00;96351.38;5034681;28;20805;-77
2022/11/08 00:25:27;;;;;;;18.43;12.73;;;;;;;3.65;100.00;96359.59;5034337;28;20445;-78
2022/11/08 00:27:54;;;;;;;16.57;11.53;;;;;;;3.60;100.00;96336.09;5031456;28;20438;-77
2022/11/08 00:30:20;;;;;;;17.53;11.57;;;;;;;3.62;100.00;96331.41;5033680;28;20949;-77
2022/11/08 00:32:47;;;;;;;14.13;10.90;;;;;;;3.72;100.00;96335.69;5029174;28;20459;-77
2022/11/08 00:35:14;;;;;;;17.87;11.70;;;;;;;3.54;100.00;96314.50;5010706;28;20427;-77
2022/11/08 00:37:40;;;;;;;14.10;11.33;;;;;;;3.61;100.00;96322.00;5023105;28;20513;-77
2022/11/08 00:40:08;;;;;;;18.03;11.03;;;;;;;3.75;100.00;96349.00;5018843;28;20500;-78
2022/11/08 00:42:34;;;;;;;19.57;11.90;;;;;;;3.60;100.00;96324.88;5032449;28;20450;-77
2022/11/08 00:45:01;;;;;;;19.80;12.50;;;;;;;3.33;100.00;96278.44;5031225;28;20434;-77
2022/11/08 00:47:28;;;;;;;20.50;13.80;;;;;;;3.75;100.00;96340.38;5034815;28;20795;-77
2022/11/08 00:49:55;;;;;;;16.67;11.20;;;;;;;3.35;100.00;96271.13;5032214;28;20461;-77
2022/11/08 00:52:22;;;;;;;20.53;13.17;;;;;;;3.34;100.00;96279.97;5034677;28;20883;-77
2022/11/08 00:54:48;;;;;;;19.03;12.20;;;;;;;3.36;100.00;96289.13;5012634;28;20462;-77
2022/11/08 00:57:15;;;;;;;13.90;9.60;;;;;;;3.56;100.00;96309.75;5037455;28;20946;-77
2022/11/08 00:59:41;;;;;;;18.80;9.97;;;;;;;3.74;100.00;96333.56;5021829;28;20476;-77
2022/11/08 01:02:08;;;;;;;11.60;9.70;;;;;;;3.58;100.00;96306.84;5033745;28;20458;-77
2022/11/08 01:04:35;;;;;;;15.93;8.47;;;;;;;3.62;100.00;96296.63;5020915;28;20450;-78
2022/11/08 01:07:01;;;;;;;13.90;9.60;;;;;;;3.63;100.00;96279.88;5005403;28;20431;-78
2022/11/08 01:09:28;;;;;;;15.50;8.40;;;;;;;3.81;100.00;96282.50;5036764;28;20534;-77
2022/11/08 01:11:55;;;;;;;9.77;6.80;;;;;;;4.10;100.00;96336.47;5030249;28;20524;-77
2022/11/08 01:14:21;;;;;;;14.27;8.00;;;;;;;3.91;100.00;96307.72;5025990;28;20489;-77
2022/11/08 01:16:48;;;;;;;14.60;8.37;;;;;;;3.66;100.00;96284.53;5013009;28;20423;-77
2022/11/08 01:19:15;;;;;;;15.00;8.90;;;;;;;3.57;100.00;96313.16;5063260;28;20467;-77
2022/11/08 01:21:41;;;;;;;27.77;17.50;;;;;;;3.02;100.00;96297.09;5037123;28;20507;-77
2022/11/08 01:24:08;;;;;;;16.67;10.67;;;;;;;3.06;100.00;96263.34;5028030;28;20534;-77
2022/11/08 01:26:35;;;;;;;13.27;10.30;;;;;;;3.73;100.00;96332.03;5041502;28;20513;-77
2022/11/08 01:29:01;;;;;;;11.27;8.83;;;;;;;3.51;100.00;96303.81;5053142;28;20437;-77
2022/11/08 01:31:30;;;;;;;13.13;11.10;;;;;;;3.63;100.00;96316.50;5036526;28;20423;-77
2022/11/08 01:33:58;;;;;;;18.73;11.10;;;;;;;3.43;100.00;96317.50;5056421;28;20480;-77
2022/11/08 01:36:27;;;;;;;14.93;10.90;;;;;;;3.37;100.00;96319.41;5034595;28;20531;-77
2022/11/08 01:38:55;;;;;;;11.97;9.80;;;;;;;3.37;100.00;96331.72;5013599;28;20530;-77
2022/11/08 01:41:24;;;;;;;13.13;11.20;;;;;;;3.31;100.00;96320.50;5024856;28;20935;-77
2022/11/08 01:43:58;;;;;;;11.67;10.47;;;;;;;2.98;100.00;96285.66;5039976;28;20458;-77
2022/11/08 01:46:35;;;;;;;12.10;9.57;;;;;;;2.93;100.00;96330.84;5023134;28;20534;-77
2022/11/08 01:49:24;;;;;;;11.07;8.60;;;;;;;2.97;100.00;96320.66;5031972;28;20840;-77
2022/11/08 01:51:53;;;;;;;13.20;9.13;;;;;;;3.01;100.00;96324.25;5032819;28;20557;-77
2022/11/08 01:54:30;;;;;;;10.27;8.80;;;;;;;3.03;100.00;96324.75;5031934;28;20442;-77
2022/11/08 01:56:59;;;;;;;9.70;8.43;;;;;;;2.83;100.00;96280.59;5021764;28;20474;-77
2022/11/08 01:59:26;;;;;;;12.60;9.43;;;;;;;2.91;100.00;96295.63;5030870;28;20468;-77
2022/11/08 02:01:53;;;;;;;20.00;10.03;;;;;;;3.12;100.00;96309.25;5019830;28;20454;-77
2022/11/08 02:04:20;;;;;;;16.03;10.20;;;;;;;3.24;100.00;96318.25;5018670;28;20450;-77
2022/11/08 02:06:48;;;;;;;8.07;7.13;;;;;;;3.35;100.00;96298.03;5016290;28;20442;-77
2022/11/08 02:09:17;;;;;;;10.93;7.67;;;;;;;3.43;100.00;96310.44;5029539;28;20473;-77
2022/11/08 02:11:46;;;;;;;14.77;8.50;;;;;;;3.12;100.00;96265.63;5035400;28;20534;-77
2022/11/08 02:14:15;;;;;;;10.10;9.00;;;;;;;2.77;100.00;96219.81;5034471;28;20485;-77
2022/11/08 02:16:41;;;;;;;10.27;8.83;;;;;;;3.07;100.00;96280.56;5035365;28;20529;-77
2022/11/08 02:19:12;;;;;;;13.20;9.40;;;;;;;3.23;100.00;96315.94;5035433;28;20469;-77
2022/11/08 02:21:48;;;;;;;10.47;9.30;;;;;;;2.80;100.00;96258.41;5036704;28;20427;-77
2022/11/08 02:24:16;;;;;;;10.03;8.60;;;;;;;3.08;100.00;96295.97;5034017;28;20561;-77
2022/11/08 02:26:44;;;;;;;8.23;7.53;;;;;;;3.11;100.00;96307.69;5037125;28;20485;-77
2022/11/08 02:29:25;;;;;;;17.50;8.30;;;;;;;3.06;100.00;96297.28;5040175;28;20473;-77
2022/11/08 02:31:52;;;;;;;7.93;6.90;;;;;;;3.28;100.00;96313.25;5024154;28;20467;-77
2022/11/08 02:34:23;;;;;;;8.20;7.40;;;;;;;2.89;100.00;96287.31;5025512;28;20444;-77
2022/11/08 02:36:50;;;;;;;6.63;6.13;;;;;;;2.74;100.00;96272.59;5037930;28;20418;-77
2022/11/08 02:39:17;;;;;;;7.43;6.73;;;;;;;2.79;100.00;96285.56;5040451;28;20792;-77
2022/11/08 02:41:43;;;;;;;9.00;6.30;;;;;;;2.80;100.00;96300.19;5018625;28;20442;-77
2022/11/08 02:44:10;;;;;;;7.47;6.77;;;;;;;2.72;100.00;96298.19;5024981;28;20474;-78
2022/11/08 02:46:37;;;;;;;6.73;5.67;;;;;;;2.48;100.00;96279.88;5032905;28;20438;-77
2022/11/08 02:49:03;;;;;;;6.33;5.27;;;;;;;2.51;100.00;96276.72;5031732;28;20802;-77
2022/11/08 02:51:30;;;;;;;6.97;6.30;;;;;;;2.19;100.00;96227.72;5035751;28;20449;-77
2022/11/08 02:53:56;;;;;;;7.43;5.67;;;;;;;2.36;100.00;96261.97;5011512;28;20443;-78
2022/11/08 02:56:23;;;;;;;6.27;5.70;;;;;;;2.25;100.00;96249.31;5033403;28;20430;-77
2022/11/08 02:58:50;;;;;;;6.20;5.17;;;;;;;2.50;100.00;96285.59;5032588;28;20548;-77
2022/11/08 03:01:17;;;;;;;7.67;6.87;;;;;;;1.97;100.00;96202.09;5019024;28;21061;-77
2022/11/08 03:03:44;;;;;;;6.97;6.30;;;;;;;2.34;100.00;96261.47;5030642;28;20850;-77
2022/11/08 03:06:10;;;;;;;9.07;5.90;;;;;;;2.15;100.00;96228.53;5032532;28;20958;-77
2022/11/08 03:08:37;;;;;;;6.50;5.87;;;;;;;2.35;100.00;96264.88;5035882;28;20538;-77
2022/11/08 03:11:04;;;;;;;6.70;5.60;;;;;;;2.06;100.00;96233.56;5035756;28;20485;-77
2022/11/08 03:13:30;;;;;;;9.33;7.10;;;;;;;2.11;100.00;96256.19;5030636;28;20506;-77
2022/11/08 03:16:01;;;;;;;7.37;5.37;;;;;;;2.22;100.00;96278.53;5025743;28;20438;-77
2022/11/08 03:18:27;;;;;;;6.10;5.27;;;;;;;2.10;100.00;96249.44;5037553;28;20464;-77
2022/11/08 03:20:54;;;;;;;5.30;4.90;;;;;;;1.78;100.00;96214.25;5031470;28;20853;-77
2022/11/08 03:23:21;;;;;;;7.17;6.47;;;;;;;2.23;100.00;96274.88;5031035;28;20588;-77
2022/11/08 03:25:47;;;;;;;6.60;6.00;;;;;;;2.01;100.00;96236.22;5015495;28;20472;-77
2022/11/08 03:28:14;;;;;;;7.97;6.40;;;;;;;2.07;100.00;96269.00;5031966;28;20429;-77
2022/11/08 03:30:50;;;;;;;6.63;5.70;;;;;;;1.85;100.00;96269.44;5019286;28;20805;-77
2022/11/08 03:33:16;;;;;;;5.90;5.37;;;;;;;1.54;100.00;96219.34;5032838;28;20817;-76
2022/11/08 03:35:43;;;;;;;6.67;5.87;;;;;;;1.83;100.00;96249.91;5021315;28;20442;-77
2022/11/08 03:38:10;;;;;;;6.10;5.20;;;;;;;1.82;100.00;96238.69;5031794;28;20438;-77
2022/11/08 03:40:36;;;;;;;6.00;5.40;;;;;;;1.51;100.00;96198.28;5009088;28;20443;-77
2022/11/08 03:43:03;;;;;;;6.63;5.97;;;;;;;2.04;100.00;96272.19;5015094;28;21081;-77
2022/11/08 03:45:29;;;;;;;8.20;5.60;;;;;;;1.66;100.00;96211.97;5023378;28;20470;-77
2022/11/08 03:47:56;;;;;;;7.67;6.97;;;;;;;1.68;100.00;96203.88;5044845;28;20433;-77
2022/11/08 03:50:23;;;;;;;9.30;5.13;;;;;;;1.80;100.00;96240.03;5029820;28;20453;-77
2022/11/08 03:52:52;;;;;;;6.70;5.80;;;;;;;2.07;100.00;96279.44;5044792;28;20455;-77
2022/11/08 03:55:21;;;;;;;7.30;5.10;;;;;;;1.85;100.00;96227.72;5024183;28;20458;-77
2022/11/08 03:57:48;;;;;;;5.20;4.80;;;;;;;2.20;100.00;96288.47;5012480;28;20431;-77
2022/11/08 04:00:27;;;;;;;6.63;5.13;;;;;;;2.15;100.00;96297.13;5024454;28;21016;-77
2022/11/08 04:02:59;;;;;;;5.47;4.97;;;;;;;2.10;100.00;96294.53;5032528;28;20450;-77
2022/11/08 04:05:26;;;;;;;6.07;5.47;;;;;;;1.74;100.00;96242.69;5026800;28;20496;-77
2022/11/08 04:07:53;;;;;;;7.50;5.33;;;;;;;1.85;100.00;96243.34;5031258;28;20434;-77
2022/11/08 04:10:19;;;;;;;6.30;5.30;;;;;;;1.68;100.00;96224.72;5040665;28;20437;-77
2022/11/08 04:15:32;;;;;;;6.60;4.30;;;;;;;1.83;100.00;96270.75;5041458;28;20448;-77
2022/11/08 04:23:33;;;;;;;6.60;5.07;;;;;;;1.63;100.00;96264.63;5043508;28;20460;-77
2022/11/08 04:26:04;;;;;;;5.63;4.60;;;;;;;1.39;100.00;96235.06;5000650;28;20443;-77
2022/11/08 04:28:35;;;;;;;4.47;4.07;;;;;;;1.45;100.00;96253.00;5028199;28;20446;-77
2022/11/08 04:31:05;;;;;;;6.33;4.70;;;;;;;1.56;100.00;96282.38;5058113;28;20920;-77
2022/11/08 04:33:32;;;;;;;6.43;5.70;;;;;;;1.56;100.00;96287.59;5004424;28;20451;-77
2022/11/08 04:36:03;;;;;;;7.20;5.03;;;;;;;1.54;100.00;96271.47;5024769;28;20431;-77
2022/11/08 04:38:31;;;;;;;6.73;3.97;;;;;;;1.17;100.00;96233.63;5037953;28;20444;-77
2022/11/08 04:41:06;;;;;;;9.93;5.57;;;;;;;1.52;100.00;96270.94;5016650;28;20446;-77
2022/11/08 04:43:33;;;;;;;10.07;5.53;;;;;;;1.39;100.00;96285.34;5035950;28;20465;-77
2022/11/08 04:46:05;;;;;;;7.07;5.10;;;;;;;1.06;100.00;96273.75;5043004;28;20446;-77
2022/11/08 04:48:32;;;;;;;15.63;6.27;;;;;;;0.92;100.00;96236.34;5011333;28;20447;-77
2022/11/08 04:51:03;;;;;;;7.50;5.13;;;;;;;1.21;100.00;96272.94;5025368;28;20492;-77
2022/11/08 04:53:30;;;;;;;7.10;5.73;;;;;;;0.89;100.00;96231.66;5030540;28;20888;-77
2022/11/08 04:55:59;;;;;;;8.20;6.10;;;;;;;1.04;100.00;96230.81;5015136;28;20453;-77
2022/11/08 04:58:27;;;;;;;10.00;6.20;;;;;;;1.17;100.00;96267.47;5044029;28;20551;-77
2022/11/08 05:00:57;;;;;;;6.03;5.20;;;;;;;0.99;100.00;96249.84;5034780;28;20560;-77
2022/11/08 05:03:24;;;;;;;5.97;5.03;;;;;;;0.92;100.00;96249.34;5036840;28;20454;-78
2022/11/08 05:05:51;;;;;;;14.97;5.97;;;;;;;0.86;100.00;96227.78;5021626;28;20985;-77
2022/11/08 05:08:18;;;;;;;8.33;6.33;;;;;;;0.92;100.00;96233.72;5010868;28;20936;-77
2022/11/08 05:10:45;;;;;;;11.27;9.87;;;;;;;0.51;100.00;96158.44;5017509;28;20911;-77
2022/11/08 05:13:12;;;;;;;9.93;7.70;;;;;;;1.10;100.00;96233.16;5014321;28;20554;-77
2022/11/08 05:15:38;;;;;;;6.13;5.63;;;;;;;0.98;100.00;96235.28;5018281;28;20800;-77
2022/11/08 05:18:05;;;;;;;7.43;4.67;;;;;;;0.89;100.00;96244.69;5036527;28;20422;-77
2022/11/08 05:23:23;;;;;;;6.60;5.97;;;;;;;0.87;100.00;96228.56;5038352;28;20480;-78
2022/11/08 05:25:54;;;;;;;12.80;5.70;;;;;;;1.16;100.00;96265.91;5037692;28;20946;-78
2022/11/08 05:28:21;;;;;;;9.60;5.90;;;;;;;1.12;100.00;96264.91;5033681;28;20446;-78
2022/11/08 05:30:52;;;;;;;9.70;6.03;;;;;;;0.83;100.00;96241.31;5038212;28;20433;-78
2022/11/08 05:33:19;;;;;;;10.40;7.33;;;;;;;0.62;100.00;96228.63;5053151;28;21018;-79
2022/11/08 05:35:46;;;;;;;14.83;8.13;;;;;;;0.24;100.00;96168.41;5049901;28;20815;-78
2022/11/08 05:38:13;;;;;;;18.67;11.13;;;;;;;0.91;100.00;96257.41;5031069;28;20469;-79
2022/11/08 05:40:40;;;;;;;21.20;12.77;;;;;;;0.91;100.00;96260.03;5046095;28;20466;-79
2022/11/08 05:43:06;;;;;;;13.50;9.50;;;;;;;0.92;100.00;96261.56;5044159;28;20473;-79
2022/11/08 05:45:33;;;;;;;16.93;11.23;;;;;;;0.80;100.00;96254.06;5034550;28;20439;-79
2022/11/08 05:48:03;;;;;;;23.63;16.20;;;;;;;0.77;100.00;96233.78;5019484;28;20470;-79
2022/11/08 05:50:34;;;;;;;13.77;9.97;;;;;;;0.53;100.00;96213.56;5050087;28;20449;-79
2022/11/08 05:53:04;;;;;;;17.37;13.70;;;;;;;0.32;100.00;96178.28;5043664;28;20458;-79
2022/11/08 05:55:30;;;;;;;36.77;22.20;;;;;;;0.47;100.00;96199.03;5052192;28;20445;-79
2022/11/08 05:57:57;;;;;;;27.63;18.50;;;;;;;0.92;100.00;96256.38;5028775;28;20921;-79
2022/11/08 06:00:23;;;;;;;18.60;15.13;;;;;;;0.70;100.00;96218.47;5034128;28;20477;-79
2022/11/08 06:02:50;;;;;;;23.63;16.27;;;;;;;0.92;100.00;96253.78;5039579;28;20458;-80
2022/11/08 06:05:17;;;;;;;18.10;14.50;;;;;;;0.82;100.00;96242.38;5017160;28;20470;-79
2022/11/08 06:07:43;;;;;;;20.00;13.37;;;;;;;0.74;100.00;96223.91;5045723;28;20440;-80
2022/11/08 06:10:12;;;;;;;13.80;11.80;;;;;;;1.06;100.00;96255.53;5054052;28;20533;-80
2022/11/08 06:12:38;;;;;;;15.57;10.40;;;;;;;1.26;100.00;96261.72;5036144;28;20457;-80
2022/11/08 06:15:07;;;;;;;13.47;9.10;;;;;;;0.95;100.00;96256.66;5043941;28;20518;-80
2022/11/08 06:17:33;;;;;;;16.10;9.53;;;;;;;0.61;100.00;96206.28;5065950;28;20445;-80
2022/11/08 06:20:00;;;;;;;17.03;10.93;;;;;;;0.17;100.00;96126.34;5035437;28;20512;-80
2022/11/08 06:22:32;;;;;;;17.90;12.20;;;;;;;0.97;100.00;96262.34;5047883;28;20450;-80
2022/11/08 06:25:00;;;;;;;18.13;10.50;;;;;;;0.90;100.00;96256.66;5023672;28;20522;-80
2022/11/08 06:27:26;;;;;;;13.33;9.23;;;;;;;0.51;100.00;96188.88;5056501;28;20493;-80
2022/11/08 06:29:53;;;;;;;17.97;11.37;;;;;;;1.16;100.00;96263.31;5039084;28;20496;-79
2022/11/08 06:32:20;;;;;;;21.10;11.20;;;;;;;1.01;100.00;96265.19;5059146;28;20986;-79
2022/11/08 06:34:47;;;;;;;12.13;9.90;;;;;;;0.88;100.00;96233.50;5051630;28;20473;-78
2022/11/08 06:37:15;;;;;;;13.63;9.70;;;;;;;0.76;100.00;96214.03;5054856;28;20973;-81
2022/11/08 06:39:42;;;;;;;11.57;8.73;;;;;;;0.42;100.00;96156.66;5050174;28;20494;-79
2022/11/08 06:42:10;;;;;;;11.40;8.00;;;;;;;0.68;100.00;96214.59;5039705;28;20471;-79
2022/11/08 06:44:36;;;;;;;12.17;9.17;;;;;;;0.70;100.00;96207.28;5051213;28;20536;-77
2022/11/08 06:47:03;;;;;;;11.57;9.33;;;;;;;0.94;100.00;96243.91;5034991;28;20457;-77
2022/11/08 06:49:30;;;;;;;16.27;11.00;;;;;;;1.14;100.00;96273.22;5036701;28;20453;-78
2022/11/08 06:51:56;;;;;;;12.93;9.83;;;;;;;0.69;100.00;96223.94;5014507;28;20582;-77
2022/11/08 06:54:23;;;;;;;18.50;9.60;;;;;;;0.41;100.00;96225.31;5027556;28;20464;-76
2022/11/08 06:56:54;;;;;;;15.17;10.10;;;;;;;0.64;100.00;96248.13;5011193;28;20467;-76
2022/11/08 06:59:22;;;;;;;13.77;10.17;;;;;;;0.47;100.00;96203.47;5041558;28;20444;-76
2022/11/08 07:01:48;;;;;;;16.43;9.87;;;;;;;0.86;100.00;96247.81;5023686;28;20451;-76
2022/11/08 07:04:15;;;;;;;15.73;11.40;;;;;;;0.88;100.00;96233.50;5024793;28;20857;-80
2022/11/08 07:06:42;;;;;;;15.00;11.97;;;;;;;0.77;100.00;96213.75;5028720;28;20442;-79
2022/11/08 07:09:09;;;;;;;27.03;18.20;;;;;;;0.98;100.00;96234.50;5033161;28;20422;-79
2022/11/08 07:11:35;;;;;;;40.23;24.27;;;;;;;0.99;100.00;96225.66;5046508;28;20443;-80
2022/11/08 07:14:02;;;;;;;38.50;21.40;;;;;;;1.25;100.00;96247.13;5048699;28;20929;-80
2022/11/08 07:16:29;;;;;;;39.10;23.10;;;;;;;1.58;100.00;96269.84;5016975;28;20451;-80
2022/11/08 07:18:55;;;;;;;41.57;21.00;;;;;;;1.26;100.00;96217.44;5020195;28;20469;-79
2022/11/08 07:21:22;;;;;;;32.20;20.60;;;;;;;1.62;100.00;96265.69;5029117;28;21005;-80
2022/11/08 07:23:49;;;;;;;25.87;14.93;;;;;;;1.38;100.00;96213.47;5043124;28;20463;-80
2022/11/08 07:26:16;;;;;;;16.80;11.10;;;;;;;1.39;100.00;96211.63;5034572;28;20488;-80
2022/11/08 07:28:42;;;;;;;18.40;11.83;;;;;;;1.42;100.00;96224.13;5038219;28;20445;-79
2022/11/08 07:31:09;;;;;;;15.73;12.03;;;;;;;1.70;100.00;96262.50;5035086;28;20477;-82
2022/11/08 07:33:36;;;;;;;15.43;11.13;;;;;;;1.52;100.00;96192.81;5043287;28;20488;-80
2022/11/08 07:36:03;;;;;;;16.90;11.23;;;;;;;1.83;100.00;96213.41;5034081;28;20461;-79
2022/11/08 07:38:29;;;;;;;20.90;12.13;;;;;;;2.26;100.00;96271.72;5032820;28;20449;-79
2022/11/08 07:40:58;;;;;;;13.83;10.57;;;;;;;2.36;100.00;96267.19;5019750;28;20458;-80
2022/11/08 07:43:26;;;;;;;26.80;20.10;;;;;;;2.22;100.00;96237.59;5037362;28;20455;-80
2022/11/08 07:45:58;;;;;;;20.50;15.97;;;;;;;2.52;100.00;96278.25;5025803;28;20438;-80
2022/11/08 07:48:27;;;;;;;18.20;13.47;;;;;;;2.05;100.00;96200.72;5030356;28;20432;-80
2022/11/08 07:50:54;;;;;;;32.73;15.57;;;;;;;2.57;100.00;96265.19;5015761;28;20538;-80
2022/11/08 07:53:21;;;;;;;17.17;12.10;;;;;;;2.71;100.00;96264.53;5048626;28;20512;-80
2022/11/08 07:55:48;;;;;;;14.30;11.40;;;;;;;2.44;100.00;96205.84;5022338;28;20446;-80
2022/11/08 07:58:15;;;;;;;11.53;9.67;;;;;;;2.84;100.00;96262.03;5030460;28;20447;-80
2022/11/08 08:00:43;;;;;;;14.60;10.80;;;;;;;2.87;100.00;96264.09;5023509;28;20467;-80
2022/11/08 08:03:12;;;;;;;16.67;9.80;;;;;;;2.93;100.00;96262.19;5016635;28;20549;-80
2022/11/08 08:05:42;;;;;;;11.83;10.53;;;;;;;2.05;100.00;96130.34;5010219;28;20465;-80
2022/11/08 08:08:11;;;;;;;15.67;12.43;;;;;;;2.72;100.00;96253.03;5007503;28;20522;-80
2022/11/08 08:10:38;;;;;;;23.63;15.70;;;;;;;2.79;100.00;96249.03;5026781;28;20810;-80
2022/11/08 08:13:05;;;;;;;21.97;14.70;;;;;;;2.82;100.00;96224.22;5028413;28;20957;-80
2022/11/08 08:15:32;;;;;;;18.87;13.50;;;;;;;2.35;100.00;96144.88;5039266;28;20977;-80
2022/11/08 08:18:01;;;;;;;21.87;15.80;;;;;;;3.20;100.00;96223.19;5033590;28;20528;-80
2022/11/08 08:20:29;;;;;;;13.37;10.60;;;;;;;2.96;100.00;96165.81;5051563;28;20500;-80
2022/11/08 08:22:56;;;;;;;11.60;10.40;;;;;;;2.28;100.00;96019.25;5029110;28;20519;-80
2022/11/08 08:25:23;;;;;;;9.10;7.57;;;;;;;3.48;100.00;96176.34;5039391;28;20447;-80
2022/11/08 08:27:53;;;;;;;8.10;7.07;;;;;;;4.30;100.00;96234.13;5027420;28;20533;-80
2022/11/08 08:30:21;;;;;;;10.30;8.17;;;;;;;4.57;100.00;96253.56;5013359;28;20854;-80
2022/11/08 08:32:48;;;;;;;8.63;7.87;;;;;;;4.40;100.00;96202.53;5037359;28;20780;-80
2022/11/08 08:35:35;;;;;;;8.20;7.30;;;;;;;4.94;100.00;96258.66;5023331;28;20482;-80
2022/11/08 08:38:03;;;;;;;9.43;7.60;;;;;;;4.91;100.00;96255.81;5036556;28;20876;-80
2022/11/08 08:40:31;;;;;;;9.67;7.97;;;;;;;5.01;100.00;96253.00;5019346;28;20553;-80
2022/11/08 08:42:59;;;;;;;12.63;7.83;;;;;;;4.63;100.00;96179.09;5021115;28;20474;-79
2022/11/08 08:45:26;;;;;;;10.87;9.77;;;;;;;5.08;100.00;96256.03;5035851;28;20506;-79
2022/11/08 08:47:54;;;;;;;9.80;8.20;;;;;;;5.17;100.00;96237.75;5059886;28;20492;-79
2022/11/08 08:50:21;;;;;;;9.43;7.67;;;;;;;5.24;100.00;96243.38;5061686;28;20453;-77
2022/11/08 08:52:48;;;;;;;8.67;7.70;;;;;;;5.09;100.00;96210.41;5049029;28;20576;-79
2022/11/08 08:55:16;;;;;;;9.83;8.03;;;;;;;5.38;100.00;96225.00;5057410;28;20445;-79
2022/11/08 08:57:44;;;;;;;10.97;7.70;;;;;;;5.00;100.00;96151.91;5044353;28;20492;-78
2022/11/08 09:00:12;;;;;;;10.70;8.30;;;;;;;5.50;100.00;96233.13;5025871;28;20530;-77
2022/11/08 09:03:04;;;;;;;9.60;7.60;;;;;;;5.55;100.00;96219.91;5060368;28;20531;-78
2022/11/08 09:05:31;;;;;;;9.07;8.10;;;;;;;6.03;100.00;96249.00;5028905;28;20454;-79
2022/11/08 09:07:58;;;;;;;7.90;7.13;;;;;;;6.01;100.00;96245.91;5048131;28;20423;-79
2022/11/08 09:10:25;;;;;;;9.70;7.57;;;;;;;6.12;100.00;96235.94;5032653;28;20433;-79
2022/11/08 09:12:52;;;;;;;9.67;8.20;;;;;;;6.37;100.00;96268.69;5023151;28;20482;-79
2022/11/08 09:15:19;;;;;;;7.77;6.83;;;;;;;6.30;100.00;96245.47;5039363;28;20843;-79
2022/11/08 09:17:46;;;;;;;9.67;7.00;;;;;;;6.21;100.00;96213.91;5040473;28;20438;-79
2022/11/08 09:20:13;;;;;;;7.70;6.90;;;;;;;6.57;100.00;96265.56;5041771;28;21021;-78
2022/11/08 09:22:39;;;;;;;7.43;6.70;;;;;;;6.84;100.00;96261.97;5012476;28;21002;-79
2022/11/08 09:25:06;;;;;;;11.17;7.27;;;;;;;6.82;100.00;96254.41;5037472;28;20465;-78
2022/11/08 09:27:33;;;;;;;7.80;6.90;;;;;;;6.64;100.00;96251.97;5040225;28;20585;-79
2022/11/08 09:29:59;;;;;;;11.33;7.70;;;;;;;6.80;100.00;96287.28;5040018;28;20434;-79
2022/11/08 09:32:27;;;;;;;12.10;8.57;;;;;;;6.69;100.00;96265.00;5033097;28;20476;-79
2022/11/08 09:35:14;;;;;;;7.23;6.50;;;;;;;6.42;100.00;96211.56;5027726;28;20466;-79
2022/11/08 09:37:40;;;;;;;8.83;6.23;;;;;;;6.29;100.00;96180.94;5030578;28;20470;-80
2022/11/08 09:40:25;;;;;;;7.67;6.97;;;;;;;6.58;100.00;96214.56;5040146;28;20468;-80
2022/11/08 09:43:17;;;;;;;9.10;6.50;;;;;;;6.95;100.00;96251.97;5051632;28;20852;-80
2022/11/08 09:45:45;;;;;;;9.53;6.53;;;;;;;7.01;100.00;96221.81;5026442;28;20442;-80
2022/11/08 09:48:37;;;;;;;10.93;7.40;;;;;;;7.28;100.00;96261.03;5036532;28;20526;-80
2022/11/08 09:51:19;;;;;;;9.73;6.23;;;;;;;7.04;100.00;96239.59;5043931;28;20508;-80
2022/11/08 09:53:53;;;;;;;11.30;6.70;;;;;;;7.41;100.00;96248.81;5028644;28;20445;-80
2022/11/08 09:56:25;;;;;;;7.93;6.90;;;;;;;6.91;100.00;96193.19;5039269;28;20968;-80
2022/11/08 09:59:39;;;;;;;9.47;8.53;;;;;;;6.97;100.00;96202.50;5023494;28;20824;-80
2022/11/08 10:02:16;;;;;;;11.00;7.10;;;;;;;7.31;100.00;96243.84;5054385;28;20504;-80
2022/11/08 10:04:52;;;;;;;5.70;5.17;;;;;;;7.32;100.00;96233.03;5036693;28;20438;-80
2022/11/08 10:07:35;;;;;;;6.43;5.90;;;;;;;7.52;100.00;96231.66;5053205;28;20579;-80
2022/11/08 10:10:16;;;;;;;5.83;5.23;;;;;;;7.70;100.00;96256.91;5042281;28;20851;-80
2022/11/08 10:13:06;;;;;;;7.03;5.43;;;;;;;7.89;100.00;96253.22;5057411;28;20468;-80
2022/11/08 10:15:47;;;;;;;6.97;5.07;;;;;;;8.05;100.00;96220.03;5042113;28;20448;-80
2022/11/08 10:18:32;;;;;;;5.20;4.50;;;;;;;8.50;100.00;96275.00;5069973;28;20471;-80
2022/11/08 10:21:20;;;;;;;4.57;4.17;;;;;;;8.55;100.00;96266.94;5027491;28;20497;-80
2022/11/08 10:24:01;;;;;;;4.57;4.13;;;;;;;8.91;100.00;96271.00;5055746;28;20484;-80
2022/11/08 10:26:35;;;;;;;4.87;4.37;;;;;;;8.95;100.00;96277.97;5028759;28;20527;-80
2022/11/08 10:29:18;;;;;;;7.53;4.27;;;;;;;9.09;100.00;96278.53;5055399;28;20883;-80
2022/11/08 10:31:46;;;;;;;4.30;3.97;;;;;;;9.00;100.00;96279.66;5056463;28;20468;-80
2022/11/08 10:34:18;;;;;;;4.47;3.90;;;;;;;8.51;100.00;96177.19;5028923;28;20520;-80
2022/11/08 10:36:53;;;;;;;5.83;4.20;;;;;;;9.09;100.00;96262.72;5045037;28;20438;-80
2022/11/08 10:39:24;;;;;;;3.23;2.93;;;;;;;9.38;100.00;96279.63;5033569;28;20453;-80
2022/11/08 10:42:13;;;;;;;4.33;3.63;;;;;;;9.54;100.00;96280.63;5032816;28;20569;-80
2022/11/08 10:44:40;;;;;;;4.70;3.73;;;;;;;9.59;100.00;96254.03;5035725;28;20431;-80
2022/11/08 10:47:31;;;;;;;6.93;4.20;;;;;;;9.73;100.00;96256.41;5038422;28;20457;-80
2022/11/08 10:49:58;;;;;;;4.40;4.00;;;;;;;9.71;100.00;96224.28;5053631;28;20454;-80
2022/11/08 10:52:39;;;;;;;4.47;4.07;;;;;;;9.76;100.00;96221.47;5033737;28;20518;-80
2022/11/08 10:55:08;;;;;;;4.07;3.67;;;;;;;9.88;100.00;96253.22;5027069;28;20438;-80
2022/11/08 10:57:42;;;;;;;4.30;3.73;;;;;;;10.20;100.00;96238.47;5039975;28;20469;-80
2022/11/08 11:00:15;;;;;;;5.43;2.93;;;;;;;10.30;100.00;96239.97;5051739;28;20549;-80
2022/11/08 11:02:43;;;;;;;4.57;4.20;;;;;;;10.21;100.00;96236.59;5025449;28;20469;-80
2022/11/08 11:05:20;;;;;;;4.50;4.10;;;;;;;10.33;100.00;96244.59;5034694;28;20461;-80
2022/11/08 11:08:06;;;;;;;3.97;3.57;;;;;;;10.49;100.00;96247.38;5043090;28;20530;-80
2022/11/08 11:10:34;;;;;;;4.20;3.80;;;;;;;10.34;100.00;96231.06;5032249;28;20530;-80
2022/11/08 11:13:01;;;;;;;4.17;3.77;;;;;;;10.64;100.00;96254.69;5034662;28;20531;-80
2022/11/08 11:15:32;;;;;;;4.20;3.80;;;;;;;10.75;100.00;96261.09;5023932;28;20446;-80
2022/11/08 11:17:59;;;;;;;4.43;3.27;;;;;;;10.68;100.00;96247.63;5048600;28;20472;-80
2022/11/08 11:20:26;;;;;;;6.70;3.83;;;;;;;10.87;100.00;96252.41;5067382;28;20520;-80
2022/11/08 11:22:53;;;;;;;4.27;3.50;;;;;;;10.61;100.00;96211.19;5059177;28;20473;-80
2022/11/08 11:25:22;;;;;;;4.07;3.60;;;;;;;10.78;100.00;96227.94;5063008;28;20449;-80
2022/11/08 11:27:54;;;;;;;4.47;4.07;;;;;;;10.95;100.00;96243.59;5039147;28;20475;-80
2022/11/08 11:30:29;;;;;;;4.87;3.20;;;;;;;10.77;100.00;96195.44;5042556;28;20466;-80
2022/11/08 11:33:24;;;;;;;3.77;3.47;;;;;;;10.97;100.00;96220.25;5032019;28;20469;-81
2022/11/08 11:36:13;;;;;;;5.03;3.67;;;;;;;11.21;100.00;96240.63;5038694;28;20451;-81
2022/11/08 11:38:54;;;;;;;4.93;3.60;;;;;;;11.08;100.00;96236.44;5038150;28;20950;-82
2022/11/08 11:41:26;;;;;;;6.33;3.93;;;;;;;11.14;100.00;96248.34;5048582;28;20497;-80
2022/11/08 11:44:11;;;;;;;4.00;3.60;;;;;;;11.23;100.00;96236.56;5042295;28;20451;-81
2022/11/08 11:46:57;;;;;;;4.17;3.87;;;;;;;11.29;100.00;96237.09;5030560;28;20439;-81
2022/11/08 11:49:24;;;;;;;6.10;4.43;;;;;;;11.13;100.00;96204.47;5030642;28;20454;-80
2022/11/08 11:51:54;;;;;;;4.03;3.07;;;;;;;11.16;100.00;96209.88;5003705;28;20968;-80
2022/11/08 11:54:27;;;;;;;3.57;3.27;;;;;;;11.38;100.00;96227.16;5050624;28;20825;-80
2022/11/08 11:57:59;;;;;;;4.83;3.87;;;;;;;11.47;100.00;96213.78;5026901;28;20440;-80
2022/11/08 12:00:25;;;;;;;3.20;2.87;;;;;;;11.49;100.00;96177.19;4980051;28;20442;-80